sensor_id;sensor_type;location;lat;lon;timestamp;pressure;altitude;pressure_sealevel;temperature;humidity
78411;BME280;67706;51.074;-1.796;2024-02-21T00:01:22;101574.28;;;9.96;100.00
78411;BME280;67706;51.074;-1.796;2024-02-21T00:03:49;101568.84;;;9.88;100.00
78411;BME280;67706;51.074;-1.796;2024-02-21T00:06:15;101562.66;;;9.94;100.00
78411;BME280;67706;51.074;-1.796;2024-02-21T00:08:42;101556.00;;;9.88;100.00
78411;BME280;67706;51.074;-1.796;2024-02-21T00:11:09;101549.84;;;9.86;100.00
78411;BME280;67706;51.074;-1.796;2024-02-21T00:13:35;101552.75;;;9.93;100.00
78411;BME280;67706;51.074;-1.796;2024-02-21T00:16:04;101549.28;;;9.91;100.00
78411;BME280;67706;51.074;-1.796;2024-02-21T00:18:31;101551.72;;;9.86;100.00
78411;BME280;67706;51.074;-1.796;2024-02-21T00:20:57;101543.47;;;9.94;100.00
78411;BME280;67706;51.074;-1.796;2024-02-21T00:23:24;101549.13;;;9.92;100.00
78411;BME280;67706;51.074;-1.796;2024-02-21T00:25:51;101553.94;;;9.90;100.00
78411;BME280;67706;51.074;-1.796;2024-02-21T00:28:17;101539.91;;;9.85;100.00
78411;BME280;67706;51.074;-1.796;2024-02-21T00:30:44;101530.13;;;9.83;100.00
78411;BME280;67706;51.074;-1.796;2024-02-21T00:33:14;101527.78;;;9.80;100.00
78411;BME280;67706;51.074;-1.796;2024-02-21T00:35:41;101517.50;;;9.82;100.00
78411;BME280;67706;51.074;-1.796;2024-02-21T00:38:07;101519.88;;;9.77;100.00
78411;BME280;67706;51.074;-1.796;2024-02-21T00:40:35;101505.19;;;9.78;100.00
78411;BME280;67706;51.074;-1.796;2024-02-21T00:43:02;101502.25;;;9.79;100.00
78411;BME280;67706;51.074;-1.796;2024-02-21T00:45:29;101490.94;;;9.74;100.00
78411;BME280;67706;51.074;-1.796;2024-02-21T00:47:55;101486.84;;;9.70;100.00
78411;BME280;67706;51.074;-1.796;2024-02-21T00:50:23;101484.31;;;9.69;100.00
78411;BME280;67706;51.074;-1.796;2024-02-21T00:52:50;101477.63;;;9.71;100.00
78411;BME280;67706;51.074;-1.796;2024-02-21T00:55:17;101477.81;;;9.61;100.00
78411;BME280;67706;51.074;-1.796;2024-02-21T00:57:43;101465.31;;;9.67;100.00
78411;BME280;67706;51.074;-1.796;2024-02-21T01:00:11;101456.91;;;9.69;100.00
78411;BME280;67706;51.074;-1.796;2024-02-21T01:02:38;101451.44;;;9.69;100.00
78411;BME280;67706;51.074;-1.796;2024-02-21T01:05:05;101439.28;;;9.71;100.00
78411;BME280;67706;51.074;-1.796;2024-02-21T01:07:33;101437.06;;;9.67;100.00
78411;BME280;67706;51.074;-1.796;2024-02-21T01:09:59;101430.22;;;9.63;100.00
78411;BME280;67706;51.074;-1.796;2024-02-21T01:12:27;101423.16;;;9.68;100.00
78411;BME280;67706;51.074;-1.796;2024-02-21T01:14:53;101416.34;;;9.64;100.00
78411;BME280;67706;51.074;-1.796;2024-02-21T01:17:20;101406.97;;;9.58;100.00
78411;BME280;67706;51.074;-1.796;2024-02-21T01:19:47;101398.69;;;9.67;100.00
78411;BME280;67706;51.074;-1.796;2024-02-21T01:22:13;101400.78;;;9.65;100.00
78411;BME280;67706;51.074;-1.796;2024-02-21T01:24:42;101405.53;;;9.71;100.00
78411;BME280;67706;51.074;-1.796;2024-02-21T01:27:09;101401.44;;;9.67;100.00
78411;BME280;67706;51.074;-1.796;2024-02-21T01:29:36;101389.63;;;9.66;100.00
78411;BME280;67706;51.074;-1.796;2024-02-21T01:32:02;101385.91;;;9.59;100.00
78411;BME280;67706;51.074;-1.796;2024-02-21T01:34:29;101373.41;;;9.56;100.00
78411;BME280;67706;51.074;-1.796;2024-02-21T01:36:56;101369.47;;;9.59;100.00
78411;BME280;67706;51.074;-1.796;2024-02-21T01:39:22;101366.91;;;9.57;100.00
78411;BME280;67706;51.074;-1.796;2024-02-21T01:41:50;101362.09;;;9.59;100.00
78411;BME280;67706;51.074;-1.796;2024-02-21T01:44:17;101351.66;;;9.63;100.00
78411;BME280;67706;51.074;-1.796;2024-02-21T01:46:44;101351.47;;;9.65;100.00
78411;BME280;67706;51.074;-1.796;2024-02-21T01:49:11;101342.09;;;9.59;100.00
78411;BME280;67706;51.074;-1.796;2024-02-21T01:51:38;101322.59;;;9.54;100.00
78411;BME280;67706;51.074;-1.796;2024-02-21T01:54:05;101328.94;;;9.54;100.00
78411;BME280;67706;51.074;-1.796;2024-02-21T01:56:32;101316.63;;;9.50;100.00
78411;BME280;67706;51.074;-1.796;2024-02-21T01:59:01;101331.72;;;9.46;100.00
78411;BME280;67706;51.074;-1.796;2024-02-21T02:01:29;101333.78;;;9.44;100.00
78411;BME280;67706;51.074;-1.796;2024-02-21T02:03:56;101316.97;;;9.47;100.00
78411;BME280;67706;51.074;-1.796;2024-02-21T02:06:23;101309.81;;;9.38;100.00
78411;BME280;67706;51.074;-1.796;2024-02-21T02:08:50;101313.25;;;9.40;100.00
78411;BME280;67706;51.074;-1.796;2024-02-21T02:11:17;101302.59;;;9.45;100.00
78411;BME280;67706;51.074;-1.796;2024-02-21T02:13:44;101298.19;;;9.44;100.00
78411;BME280;67706;51.074;-1.796;2024-02-21T02:16:12;101281.94;;;9.35;100.00
78411;BME280;67706;51.074;-1.796;2024-02-21T02:18:39;101301.31;;;9.33;100.00
78411;BME280;67706;51.074;-1.796;2024-02-21T02:21:10;101291.03;;;9.35;100.00
78411;BME280;67706;51.074;-1.796;2024-02-21T02:23:38;101284.56;;;9.28;100.00
78411;BME280;67706;51.074;-1.796;2024-02-21T02:26:05;101290.94;;;9.21;100.00
78411;BME280;67706;51.074;-1.796;2024-02-21T02:28:33;101278.59;;;9.25;100.00
78411;BME280;67706;51.074;-1.796;2024-02-21T02:30:59;101278.25;;;9.28;100.00
78411;BME280;67706;51.074;-1.796;2024-02-21T02:33:26;101274.47;;;9.29;100.00
78411;BME280;67706;51.074;-1.796;2024-02-21T02:35:53;101287.81;;;9.32;100.00
78411;BME280;67706;51.074;-1.796;2024-02-21T02:38:19;101284.50;;;9.36;100.00
78411;BME280;67706;51.074;-1.796;2024-02-21T02:40:47;101280.41;;;9.32;100.00
78411;BME280;67706;51.074;-1.796;2024-02-21T02:43:14;101265.34;;;9.36;100.00
78411;BME280;67706;51.074;-1.796;2024-02-21T02:45:41;101265.47;;;9.43;100.00
78411;BME280;67706;51.074;-1.796;2024-02-21T02:48:07;101254.91;;;9.40;100.00
78411;BME280;67706;51.074;-1.796;2024-02-21T02:50:34;101267.53;;;9.41;100.00
78411;BME280;67706;51.074;-1.796;2024-02-21T02:53:01;101260.84;;;9.43;100.00
78411;BME280;67706;51.074;-1.796;2024-02-21T02:55:28;101258.78;;;9.45;100.00
78411;BME280;67706;51.074;-1.796;2024-02-21T02:57:56;101249.91;;;9.43;100.00
78411;BME280;67706;51.074;-1.796;2024-02-21T03:00:22;101243.75;;;9.41;100.00
78411;BME280;67706;51.074;-1.796;2024-02-21T03:02:49;101228.38;;;9.40;100.00
78411;BME280;67706;51.074;-1.796;2024-02-21T03:05:17;101223.91;;;9.39;100.00
78411;BME280;67706;51.074;-1.796;2024-02-21T03:07:45;101224.09;;;9.38;100.00
78411;BME280;67706;51.074;-1.796;2024-02-21T03:10:12;101217.25;;;9.42;100.00
78411;BME280;67706;51.074;-1.796;2024-02-21T03:12:39;101206.81;;;9.37;100.00
78411;BME280;67706;51.074;-1.796;2024-02-21T03:15:08;101194.81;;;9.38;100.00
78411;BME280;67706;51.074;-1.796;2024-02-21T03:17:35;101197.22;;;9.41;100.00
78411;BME280;67706;51.074;-1.796;2024-02-21T03:20:01;101189.53;;;9.37;100.00
78411;BME280;67706;51.074;-1.796;2024-02-21T03:22:30;101175.19;;;9.35;100.00
78411;BME280;67706;51.074;-1.796;2024-02-21T03:24:57;101181.03;;;9.32;100.00
78411;BME280;67706;51.074;-1.796;2024-02-21T03:27:24;101170.91;;;9.32;100.00
78411;BME280;67706;51.074;-1.796;2024-02-21T03:29:51;101172.25;;;9.36;100.00
78411;BME280;67706;51.074;-1.796;2024-02-21T03:32:19;101165.81;;;9.29;100.00
78411;BME280;67706;51.074;-1.796;2024-02-21T03:34:45;101145.78;;;9.29;100.00
78411;BME280;67706;51.074;-1.796;2024-02-21T03:37:12;101140.13;;;9.30;100.00
78411;BME280;67706;51.074;-1.796;2024-02-21T03:39:39;101129.19;;;9.30;100.00
78411;BME280;67706;51.074;-1.796;2024-02-21T03:42:06;101139.31;;;9.30;100.00
78411;BME280;67706;51.074;-1.796;2024-02-21T03:44:33;101137.22;;;9.32;100.00
78411;BME280;67706;51.074;-1.796;2024-02-21T03:47:00;101126.38;;;9.38;100.00
78411;BME280;67706;51.074;-1.796;2024-02-21T03:49:28;101118.88;;;9.32;100.00
78411;BME280;67706;51.074;-1.796;2024-02-21T03:51:55;101114.75;;;9.36;100.00
78411;BME280;67706;51.074;-1.796;2024-02-21T03:54:22;101102.44;;;9.40;100.00
78411;BME280;67706;51.074;-1.796;2024-02-21T03:56:48;101092.84;;;9.36;100.00
78411;BME280;67706;51.074;-1.796;2024-02-21T03:59:15;101078.81;;;9.39;100.00
78411;BME280;67706;51.074;-1.796;2024-02-21T04:01:42;101076.41;;;9.36;100.00
78411;BME280;67706;51.074;-1.796;2024-02-21T04:04:09;101086.00;;;9.40;100.00
78411;BME280;67706;51.074;-1.796;2024-02-21T04:06:46;101075.59;;;9.36;100.00
78411;BME280;67706;51.074;-1.796;2024-02-21T04:09:12;101063.41;;;9.38;100.00
78411;BME280;67706;51.074;-1.796;2024-02-21T04:11:39;101057.44;;;9.35;100.00
78411;BME280;67706;51.074;-1.796;2024-02-21T04:14:05;101039.81;;;9.37;100.00
78411;BME280;67706;51.074;-1.796;2024-02-21T04:16:32;101040.47;;;9.39;100.00
78411;BME280;67706;51.074;-1.796;2024-02-21T04:18:59;101024.59;;;9.35;100.00
78411;BME280;67706;51.074;-1.796;2024-02-21T04:21:27;101025.47;;;9.35;100.00
78411;BME280;67706;51.074;-1.796;2024-02-21T04:23:55;101021.38;;;9.31;100.00
78411;BME280;67706;51.074;-1.796;2024-02-21T04:26:22;101004.56;;;9.34;100.00
78411;BME280;67706;51.074;-1.796;2024-02-21T04:28:48;101002.22;;;9.31;100.00
78411;BME280;67706;51.074;-1.796;2024-02-21T04:31:15;100992.28;;;9.30;100.00
78411;BME280;67706;51.074;-1.796;2024-02-21T04:33:41;100994.38;;;9.28;100.00
78411;BME280;67706;51.074;-1.796;2024-02-21T04:36:08;101002.22;;;9.31;100.00
78411;BME280;67706;51.074;-1.796;2024-02-21T04:38:35;100995.53;;;9.34;100.00
78411;BME280;67706;51.074;-1.796;2024-02-21T04:41:03;100988.34;;;9.33;100.00
78411;BME280;67706;51.074;-1.796;2024-02-21T04:43:30;100979.28;;;9.32;100.00
78411;BME280;67706;51.074;-1.796;2024-02-21T04:45:56;100965.47;;;9.26;100.00
78411;BME280;67706;51.074;-1.796;2024-02-21T04:48:23;100968.06;;;9.27;100.00
78411;BME280;67706;51.074;-1.796;2024-02-21T04:50:50;100963.03;;;9.31;100.00
78411;BME280;67706;51.074;-1.796;2024-02-21T04:53:17;100955.28;;;9.34;100.00
78411;BME280;67706;51.074;-1.796;2024-02-21T04:55:44;100945.09;;;9.28;100.00
78411;BME280;67706;51.074;-1.796;2024-02-21T04:58:11;100934.53;;;9.25;100.00
78411;BME280;67706;51.074;-1.796;2024-02-21T05:00:38;100922.28;;;9.21;100.00
78411;BME280;67706;51.074;-1.796;2024-02-21T05:03:05;100926.69;;;9.22;100.00
78411;BME280;67706;51.074;-1.796;2024-02-21T05:05:32;100918.28;;;9.24;100.00
78411;BME280;67706;51.074;-1.796;2024-02-21T05:07:59;100905.66;;;9.23;100.00
78411;BME280;67706;51.074;-1.796;2024-02-21T05:10:26;100888.56;;;9.21;100.00
78411;BME280;67706;51.074;-1.796;2024-02-21T05:12:52;100883.84;;;9.15;100.00
78411;BME280;67706;51.074;-1.796;2024-02-21T05:15:20;100897.34;;;9.16;100.00
78411;BME280;67706;51.074;-1.796;2024-02-21T05:17:47;100889.44;;;9.21;100.00
78411;BME280;67706;51.074;-1.796;2024-02-21T05:20:14;100883.00;;;9.14;100.00
78411;BME280;67706;51.074;-1.796;2024-02-21T05:22:40;100878.53;;;9.13;100.00
78411;BME280;67706;51.074;-1.796;2024-02-21T05:25:07;100878.19;;;9.16;100.00
78411;BME280;67706;51.074;-1.796;2024-02-21T05:27:34;100864.50;;;9.16;100.00
78411;BME280;67706;51.074;-1.796;2024-02-21T05:30:02;100854.66;;;9.07;100.00
78411;BME280;67706;51.074;-1.796;2024-02-21T05:32:30;100848.94;;;9.17;100.00
78411;BME280;67706;51.074;-1.796;2024-02-21T05:34:57;100851.88;;;9.15;100.00
78411;BME280;67706;51.074;-1.796;2024-02-21T05:37:27;100834.59;;;9.15;100.00
78411;BME280;67706;51.074;-1.796;2024-02-21T05:39:53;100820.25;;;9.13;100.00
78411;BME280;67706;51.074;-1.796;2024-02-21T05:42:20;100817.50;;;9.13;100.00
78411;BME280;67706;51.074;-1.796;2024-02-21T05:44:47;100820.69;;;9.16;100.00
78411;BME280;67706;51.074;-1.796;2024-02-21T05:47:13;100810.97;;;9.14;100.00
78411;BME280;67706;51.074;-1.796;2024-02-21T05:49:42;100793.34;;;9.16;100.00
78411;BME280;67706;51.074;-1.796;2024-02-21T05:52:08;100799.47;;;9.18;100.00
78411;BME280;67706;51.074;-1.796;2024-02-21T05:54:37;100789.94;;;9.14;100.00
78411;BME280;67706;51.074;-1.796;2024-02-21T05:57:04;100767.38;;;9.12;100.00
78411;BME280;67706;51.074;-1.796;2024-02-21T05:59:31;100774.19;;;9.16;100.00
78411;BME280;67706;51.074;-1.796;2024-02-21T06:01:58;100764.84;;;9.11;100.00
78411;BME280;67706;51.074;-1.796;2024-02-21T06:04:24;100760.22;;;9.11;100.00
78411;BME280;67706;51.074;-1.796;2024-02-21T06:06:52;100747.88;;;9.15;100.00
78411;BME280;67706;51.074;-1.796;2024-02-21T06:09:19;100749.91;;;9.13;100.00
78411;BME280;67706;51.074;-1.796;2024-02-21T06:11:46;100751.34;;;9.09;100.00
78411;BME280;67706;51.074;-1.796;2024-02-21T06:14:14;100748.25;;;9.12;100.00
78411;BME280;67706;51.074;-1.796;2024-02-21T06:16:41;100732.47;;;9.14;100.00
78411;BME280;67706;51.074;-1.796;2024-02-21T06:19:07;100725.03;;;9.08;100.00
78411;BME280;67706;51.074;-1.796;2024-02-21T06:21:34;100722.56;;;9.13;100.00
78411;BME280;67706;51.074;-1.796;2024-02-21T06:24:02;100716.63;;;9.10;100.00
78411;BME280;67706;51.074;-1.796;2024-02-21T06:26:29;100718.13;;;9.12;100.00
78411;BME280;67706;51.074;-1.796;2024-02-21T06:28:56;100718.25;;;9.04;100.00
78411;BME280;67706;51.074;-1.796;2024-02-21T06:31:25;100715.75;;;9.09;100.00
78411;BME280;67706;51.074;-1.796;2024-02-21T06:33:51;100711.16;;;9.10;100.00
78411;BME280;67706;51.074;-1.796;2024-02-21T06:36:18;100703.78;;;9.10;100.00
78411;BME280;67706;51.074;-1.796;2024-02-21T06:38:45;100709.94;;;9.12;100.00
78411;BME280;67706;51.074;-1.796;2024-02-21T06:41:16;100709.47;;;9.09;100.00
78411;BME280;67706;51.074;-1.796;2024-02-21T06:43:43;100696.44;;;9.11;100.00
78411;BME280;67706;51.074;-1.796;2024-02-21T06:46:10;100691.78;;;9.11;100.00
78411;BME280;67706;51.074;-1.796;2024-02-21T06:48:37;100672.59;;;9.05;100.00
78411;BME280;67706;51.074;-1.796;2024-02-21T06:51:04;100697.00;;;9.06;100.00
78411;BME280;67706;51.074;-1.796;2024-02-21T06:53:31;100686.72;;;9.08;100.00
78411;BME280;67706;51.074;-1.796;2024-02-21T06:55:57;100675.97;;;9.07;100.00
78411;BME280;67706;51.074;-1.796;2024-02-21T06:58:25;100668.22;;;9.10;100.00
78411;BME280;67706;51.074;-1.796;2024-02-21T07:00:52;100666.72;;;9.08;100.00
78411;BME280;67706;51.074;-1.796;2024-02-21T07:03:19;100646.25;;;9.04;100.00
78411;BME280;67706;51.074;-1.796;2024-02-21T07:05:45;100653.47;;;9.11;100.00
78411;BME280;67706;51.074;-1.796;2024-02-21T07:08:12;100645.28;;;9.11;100.00
78411;BME280;67706;51.074;-1.796;2024-02-21T07:10:38;100639.63;;;9.13;100.00
78411;BME280;67706;51.074;-1.796;2024-02-21T07:13:05;100637.34;;;9.16;100.00
78411;BME280;67706;51.074;-1.796;2024-02-21T07:15:33;100633.31;;;9.12;100.00
78411;BME280;67706;51.074;-1.796;2024-02-21T07:18:01;100621.50;;;9.12;100.00
78411;BME280;67706;51.074;-1.796;2024-02-21T07:20:28;100617.75;;;9.13;100.00
78411;BME280;67706;51.074;-1.796;2024-02-21T07:22:55;100606.13;;;9.11;100.00
78411;BME280;67706;51.074;-1.796;2024-02-21T07:25:21;100588.22;;;9.08;100.00
78411;BME280;67706;51.074;-1.796;2024-02-21T07:27:48;100595.00;;;9.12;100.00
78411;BME280;67706;51.074;-1.796;2024-02-21T07:30:15;100592.47;;;9.11;100.00
78411;BME280;67706;51.074;-1.796;2024-02-21T07:32:43;100589.16;;;9.15;100.00
78411;BME280;67706;51.074;-1.796;2024-02-21T07:35:10;100567.25;;;9.15;100.00
78411;BME280;67706;51.074;-1.796;2024-02-21T07:37:37;100575.19;;;9.10;100.00
78411;BME280;67706;51.074;-1.796;2024-02-21T07:40:05;100561.78;;;9.15;100.00
78411;BME280;67706;51.074;-1.796;2024-02-21T07:42:32;100555.91;;;9.18;100.00
78411;BME280;67706;51.074;-1.796;2024-02-21T07:44:59;100549.78;;;9.16;100.00
78411;BME280;67706;51.074;-1.796;2024-02-21T07:47:27;100544.88;;;9.12;100.00
78411;BME280;67706;51.074;-1.796;2024-02-21T07:49:55;100547.63;;;9.12;100.00
78411;BME280;67706;51.074;-1.796;2024-02-21T07:52:21;100536.66;;;9.12;100.00
78411;BME280;67706;51.074;-1.796;2024-02-21T07:54:48;100530.63;;;9.16;100.00
78411;BME280;67706;51.074;-1.796;2024-02-21T07:57:15;100527.22;;;9.14;100.00
78411;BME280;67706;51.074;-1.796;2024-02-21T07:59:41;100520.97;;;9.20;100.00
78411;BME280;67706;51.074;-1.796;2024-02-21T08:02:08;100518.16;;;9.14;100.00
78411;BME280;67706;51.074;-1.796;2024-02-21T08:04:35;100524.06;;;9.11;100.00
78411;BME280;67706;51.074;-1.796;2024-02-21T08:07:03;100518.38;;;9.12;100.00
78411;BME280;67706;51.074;-1.796;2024-02-21T08:09:30;100523.63;;;9.14;100.00
78411;BME280;67706;51.074;-1.796;2024-02-21T08:11:57;100504.63;;;9.06;100.00
78411;BME280;67706;51.074;-1.796;2024-02-21T08:14:24;100518.09;;;9.07;100.00
78411;BME280;67706;51.074;-1.796;2024-02-21T08:16:51;100509.50;;;9.10;100.00
78411;BME280;67706;51.074;-1.796;2024-02-21T08:19:20;100510.53;;;9.09;100.00
78411;BME280;67706;51.074;-1.796;2024-02-21T08:21:48;100503.84;;;9.12;100.00
78411;BME280;67706;51.074;-1.796;2024-02-21T08:24:16;100498.56;;;9.10;100.00
78411;BME280;67706;51.074;-1.796;2024-02-21T08:26:43;100497.34;;;9.13;100.00
78411;BME280;67706;51.074;-1.796;2024-02-21T08:29:11;100482.16;;;9.10;100.00
78411;BME280;67706;51.074;-1.796;2024-02-21T08:31:38;100479.63;;;9.09;100.00
78411;BME280;67706;51.074;-1.796;2024-02-21T08:34:05;100478.13;;;9.06;100.00
78411;BME280;67706;51.074;-1.796;2024-02-21T08:36:32;100475.38;;;9.06;100.00
78411;BME280;67706;51.074;-1.796;2024-02-21T08:39:00;100467.81;;;9.08;100.00
78411;BME280;67706;51.074;-1.796;2024-02-21T08:41:30;100453.09;;;9.09;100.00
78411;BME280;67706;51.074;-1.796;2024-02-21T08:43:57;100459.84;;;9.13;100.00
78411;BME280;67706;51.074;-1.796;2024-02-21T08:46:24;100448.09;;;9.13;100.00
78411;BME280;67706;51.074;-1.796;2024-02-21T08:48:51;100436.28;;;9.12;100.00
78411;BME280;67706;51.074;-1.796;2024-02-21T08:51:18;100421.94;;;9.10;100.00
78411;BME280;67706;51.074;-1.796;2024-02-21T08:53:45;100413.31;;;9.13;100.00
78411;BME280;67706;51.074;-1.796;2024-02-21T08:56:12;100410.66;;;9.20;100.00
78411;BME280;67706;51.074;-1.796;2024-02-21T08:58:40;100403.50;;;9.19;100.00
78411;BME280;67706;51.074;-1.796;2024-02-21T09:01:07;100393.16;;;9.14;100.00
78411;BME280;67706;51.074;-1.796;2024-02-21T09:03:36;100384.28;;;9.12;100.00
78411;BME280;67706;51.074;-1.796;2024-02-21T09:06:04;100371.00;;;9.09;100.00
78411;BME280;67706;51.074;-1.796;2024-02-21T09:08:30;100379.63;;;9.06;100.00
78411;BME280;67706;51.074;-1.796;2024-02-21T09:10:57;100358.81;;;9.12;100.00
78411;BME280;67706;51.074;-1.796;2024-02-21T09:13:24;100350.81;;;9.10;100.00
78411;BME280;67706;51.074;-1.796;2024-02-21T09:15:52;100349.53;;;9.06;100.00
78411;BME280;67706;51.074;-1.796;2024-02-21T09:18:18;100351.63;;;9.04;100.00
78411;BME280;67706;51.074;-1.796;2024-02-21T09:20:45;100333.97;;;9.07;100.00
78411;BME280;67706;51.074;-1.796;2024-02-21T09:23:13;100339.88;;;9.10;100.00
78411;BME280;67706;51.074;-1.796;2024-02-21T09:25:39;100331.66;;;9.10;100.00
78411;BME280;67706;51.074;-1.796;2024-02-21T09:28:06;100331.69;;;9.17;100.00
78411;BME280;67706;51.074;-1.796;2024-02-21T09:30:33;100307.28;;;9.15;100.00
78411;BME280;67706;51.074;-1.796;2024-02-21T09:33:01;100307.06;;;9.17;100.00
78411;BME280;67706;51.074;-1.796;2024-02-21T09:35:28;100295.28;;;9.16;100.00
78411;BME280;67706;51.074;-1.796;2024-02-21T09:37:55;100292.53;;;9.16;100.00
78411;BME280;67706;51.074;-1.796;2024-02-21T09:40:21;100282.66;;;9.15;100.00
78411;BME280;67706;51.074;-1.796;2024-02-21T09:42:48;100271.03;;;9.13;100.00
78411;BME280;67706;51.074;-1.796;2024-02-21T09:45:20;100269.41;;;9.19;100.00
78411;BME280;67706;51.074;-1.796;2024-02-21T09:47:58;100267.06;;;9.16;100.00
78411;BME280;67706;51.074;-1.796;2024-02-21T09:50:30;100261.63;;;9.22;100.00
78411;BME280;67706;51.074;-1.796;2024-02-21T09:52:58;100253.19;;;9.17;100.00
78411;BME280;67706;51.074;-1.796;2024-02-21T09:55:27;100243.53;;;9.21;100.00
78411;BME280;67706;51.074;-1.796;2024-02-21T09:57:58;100230.88;;;9.20;100.00
78411;BME280;67706;51.074;-1.796;2024-02-21T10:00:25;100234.50;;;9.27;100.00
78411;BME280;67706;51.074;-1.796;2024-02-21T10:02:53;100219.31;;;9.25;100.00
78411;BME280;67706;51.074;-1.796;2024-02-21T10:05:20;100226.72;;;9.31;100.00
78411;BME280;67706;51.074;-1.796;2024-02-21T10:07:49;100211.75;;;9.27;100.00
78411;BME280;67706;51.074;-1.796;2024-02-21T10:10:25;100203.97;;;9.30;100.00
78411;BME280;67706;51.074;-1.796;2024-02-21T10:12:57;100199.34;;;9.31;100.00
78411;BME280;67706;51.074;-1.796;2024-02-21T10:15:24;100188.16;;;9.26;100.00
78411;BME280;67706;51.074;-1.796;2024-02-21T10:17:58;100197.47;;;9.31;100.00
78411;BME280;67706;51.074;-1.796;2024-02-21T10:20:26;100191.38;;;9.36;100.00
78411;BME280;67706;51.074;-1.796;2024-02-21T10:23:02;100182.94;;;9.37;100.00
78411;BME280;67706;51.074;-1.796;2024-02-21T10:25:33;100179.59;;;9.42;100.00
78411;BME280;67706;51.074;-1.796;2024-02-21T10:28:01;100163.19;;;9.42;100.00
78411;BME280;67706;51.074;-1.796;2024-02-21T10:30:28;100168.44;;;9.50;100.00
78411;BME280;67706;51.074;-1.796;2024-02-21T10:32:55;100159.38;;;9.43;100.00
78411;BME280;67706;51.074;-1.796;2024-02-21T10:35:26;100144.22;;;9.47;100.00
78411;BME280;67706;51.074;-1.796;2024-02-21T10:37:54;100132.00;;;9.49;100.00
78411;BME280;67706;51.074;-1.796;2024-02-21T10:40:23;100139.81;;;9.52;100.00
78411;BME280;67706;51.074;-1.796;2024-02-21T10:42:55;100135.41;;;9.58;100.00
78411;BME280;67706;51.074;-1.796;2024-02-21T10:45:29;100106.53;;;9.55;100.00
78411;BME280;67706;51.074;-1.796;2024-02-21T10:48:01;100110.53;;;9.59;100.00
78411;BME280;67706;51.074;-1.796;2024-02-21T10:50:39;100100.44;;;9.60;100.00
78411;BME280;67706;51.074;-1.796;2024-02-21T10:53:17;100103.38;;;9.58;100.00
78411;BME280;67706;51.074;-1.796;2024-02-21T10:55:57;100090.75;;;9.57;100.00
78411;BME280;67706;51.074;-1.796;2024-02-21T10:58:25;100085.06;;;9.59;100.00
78411;BME280;67706;51.074;-1.796;2024-02-21T11:00:54;100081.03;;;9.61;100.00
78411;BME280;67706;51.074;-1.796;2024-02-21T11:03:20;100067.78;;;9.58;100.00
78411;BME280;67706;51.074;-1.796;2024-02-21T11:05:48;100064.22;;;9.65;100.00
78411;BME280;67706;51.074;-1.796;2024-02-21T11:08:15;100057.25;;;9.62;100.00
78411;BME280;67706;51.074;-1.796;2024-02-21T11:10:45;100056.41;;;9.68;100.00
78411;BME280;67706;51.074;-1.796;2024-02-21T11:13:13;100051.78;;;9.69;100.00
78411;BME280;67706;51.074;-1.796;2024-02-21T11:15:40;100043.97;;;9.72;100.00
78411;BME280;67706;51.074;-1.796;2024-02-21T11:18:07;100041.88;;;9.74;100.00
78411;BME280;67706;51.074;-1.796;2024-02-21T11:20:34;100025.03;;;9.77;100.00
78411;BME280;67706;51.074;-1.796;2024-02-21T11:23:01;100020.38;;;9.78;100.00
78411;BME280;67706;51.074;-1.796;2024-02-21T11:25:28;100017.22;;;9.81;100.00
78411;BME280;67706;51.074;-1.796;2024-02-21T11:28:00;100008.97;;;9.94;100.00
78411;BME280;67706;51.074;-1.796;2024-02-21T11:30:30;99995.06;;;9.89;100.00
78411;BME280;67706;51.074;-1.796;2024-02-21T11:33:02;99990.88;;;9.86;100.00
78411;BME280;67706;51.074;-1.796;2024-02-21T11:35:33;99978.44;;;9.90;100.00
78411;BME280;67706;51.074;-1.796;2024-02-21T11:38:10;99977.59;;;9.90;100.00
78411;BME280;67706;51.074;-1.796;2024-02-21T11:40:41;99968.72;;;9.94;100.00
78411;BME280;67706;51.074;-1.796;2024-02-21T11:43:08;99964.28;;;10.00;100.00
78411;BME280;67706;51.074;-1.796;2024-02-21T11:45:36;99960.91;;;9.98;100.00
78411;BME280;67706;51.074;-1.796;2024-02-21T11:48:06;99955.81;;;10.08;100.00
78411;BME280;67706;51.074;-1.796;2024-02-21T11:50:34;99941.72;;;9.98;100.00
78411;BME280;67706;51.074;-1.796;2024-02-21T11:53:01;99936.47;;;10.03;100.00
78411;BME280;67706;51.074;-1.796;2024-02-21T11:55:28;99925.50;;;10.03;100.00
78411;BME280;67706;51.074;-1.796;2024-02-21T11:57:55;99921.25;;;10.07;100.00
78411;BME280;67706;51.074;-1.796;2024-02-21T12:00:23;99906.50;;;10.14;100.00
78411;BME280;67706;51.074;-1.796;2024-02-21T12:02:52;99894.28;;;10.17;100.00
78411;BME280;67706;51.074;-1.796;2024-02-21T12:05:20;99897.59;;;10.25;100.00
78411;BME280;67706;51.074;-1.796;2024-02-21T12:07:47;99896.13;;;10.23;100.00
78411;BME280;67706;51.074;-1.796;2024-02-21T12:10:14;99876.53;;;10.26;100.00
78411;BME280;67706;51.074;-1.796;2024-02-21T12:12:41;99885.13;;;10.29;100.00
78411;BME280;67706;51.074;-1.796;2024-02-21T12:15:08;99870.94;;;10.39;100.00
78411;BME280;67706;51.074;-1.796;2024-02-21T12:17:35;99865.72;;;10.31;100.00
78411;BME280;67706;51.074;-1.796;2024-02-21T12:20:04;99856.44;;;10.32;100.00
78411;BME280;67706;51.074;-1.796;2024-02-21T12:22:35;99859.97;;;10.39;100.00
78411;BME280;67706;51.074;-1.796;2024-02-21T12:25:03;99845.06;;;10.28;100.00
78411;BME280;67706;51.074;-1.796;2024-02-21T12:27:33;99833.47;;;10.26;100.00
78411;BME280;67706;51.074;-1.796;2024-02-21T12:29:59;99833.91;;;10.30;100.00
78411;BME280;67706;51.074;-1.796;2024-02-21T12:32:26;99817.19;;;10.38;100.00
78411;BME280;67706;51.074;-1.796;2024-02-21T12:34:53;99811.50;;;10.33;100.00
78411;BME280;67706;51.074;-1.796;2024-02-21T12:37:21;99798.44;;;10.35;100.00
78411;BME280;67706;51.074;-1.796;2024-02-21T12:39:48;99800.06;;;10.43;100.00
78411;BME280;67706;51.074;-1.796;2024-02-21T12:42:15;99794.13;;;10.46;100.00